sensor_id;sensor_type;location;lat;lon;timestamp;temperature;humidity
45319;DHT22;31057;48.498;32.260;2023-07-13T07:02:39;24.20;99.90
45319;DHT22;31057;48.498;32.260;2023-07-13T07:04:41;24.60;99.90
45319;DHT22;31057;48.498;32.260;2023-07-13T07:06:43;24.50;99.90
45319;DHT22;31057;48.498;32.260;2023-07-13T07:08:46;24.60;99.90
45319;DHT22;31057;48.498;32.260;2023-07-13T07:10:48;24.50;99.90
45319;DHT22;31057;48.498;32.260;2023-07-13T07:12:55;24.60;99.90
45319;DHT22;31057;48.498;32.260;2023-07-13T07:14:58;24.80;99.90
45319;DHT22;31057;48.498;32.260;2023-07-13T07:17:00;25.10;99.90
45319;DHT22;31057;48.498;32.260;2023-07-13T07:19:02;25.00;99.90
45319;DHT22;31057;48.498;32.260;2023-07-13T07:21:04;25.10;99.90
45319;DHT22;31057;48.498;32.260;2023-07-13T07:23:06;25.10;99.90
45319;DHT22;31057;48.498;32.260;2023-07-13T07:25:08;25.30;99.90
45319;DHT22;31057;48.498;32.260;2023-07-13T07:27:10;25.50;99.90
45319;DHT22;31057;48.498;32.260;2023-07-13T07:29:15;25.40;99.90
45319;DHT22;31057;48.498;32.260;2023-07-13T07:31:20;25.10;99.90
45319;DHT22;31057;48.498;32.260;2023-07-13T07:33:25;24.90;99.90
45319;DHT22;31057;48.498;32.260;2023-07-13T07:35:27;24.80;99.90
45319;DHT22;31057;48.498;32.260;2023-07-13T07:37:33;24.80;99.90
45319;DHT22;31057;48.498;32.260;2023-07-13T07:39:38;24.90;99.90
45319;DHT22;31057;48.498;32.260;2023-07-13T07:41:48;24.90;99.90
45319;DHT22;31057;48.498;32.260;2023-07-13T07:43:53;24.90;99.90
45319;DHT22;31057;48.498;32.260;2023-07-13T07:45:55;24.80;99.90
45319;DHT22;31057;48.498;32.260;2023-07-13T07:47:57;24.80;99.90
45319;DHT22;31057;48.498;32.260;2023-07-13T07:50:00;24.80;99.90
45319;DHT22;31057;48.498;32.260;2023-07-13T07:52:03;24.90;99.90
45319;DHT22;31057;48.498;32.260;2023-07-13T07:54:05;25.10;99.90
45319;DHT22;31057;48.498;32.260;2023-07-13T07:56:07;25.10;99.90
45319;DHT22;31057;48.498;32.260;2023-07-13T07:58:12;25.20;99.90
45319;DHT22;31057;48.498;32.260;2023-07-13T08:00:34;25.30;99.90
45319;DHT22;31057;48.498;32.260;2023-07-13T08:02:57;25.50;99.90
45319;DHT22;31057;48.498;32.260;2023-07-13T08:05:19;25.50;99.90
45319;DHT22;31057;48.498;32.260;2023-07-13T08:07:39;25.50;99.90
45319;DHT22;31057;48.498;32.260;2023-07-13T08:09:42;25.60;99.90
45319;DHT22;31057;48.498;32.260;2023-07-13T08:11:44;25.70;99.90
45319;DHT22;31057;48.498;32.260;2023-07-13T08:13:49;25.40;99.90
45319;DHT22;31057;48.498;32.260;2023-07-13T08:15:55;25.70;99.90
45319;DHT22;31057;48.498;32.260;2023-07-13T08:17:57;25.80;99.90
45319;DHT22;31057;48.498;32.260;2023-07-13T08:19:59;25.90;99.90
45319;DHT22;31057;48.498;32.260;2023-07-13T08:22:01;25.90;99.90
45319;DHT22;31057;48.498;32.260;2023-07-13T08:24:03;26.20;99.90
45319;DHT22;31057;48.498;32.260;2023-07-13T08:26:06;26.10;99.90
45319;DHT22;31057;48.498;32.260;2023-07-13T08:28:08;26.10;99.90
45319;DHT22;31057;48.498;32.260;2023-07-13T08:30:10;25.80;99.90
45319;DHT22;31057;48.498;32.260;2023-07-13T08:32:12;26.00;99.90
45319;DHT22;31057;48.498;32.260;2023-07-13T08:34:14;26.10;99.90
45319;DHT22;31057;48.498;32.260;2023-07-13T08:36:18;25.90;99.90
45319;DHT22;31057;48.498;32.260;2023-07-13T08:38:20;25.80;99.90
45319;DHT22;31057;48.498;32.260;2023-07-13T08:40:25;25.60;99.90
45319;DHT22;31057;48.498;32.260;2023-07-13T08:42:44;25.50;99.90
45319;DHT22;31057;48.498;32.260;2023-07-13T08:47:15;25.20;99.90
45319;DHT22;31057;48.498;32.260;2023-07-13T08:49:22;25.40;99.90
45319;DHT22;31057;48.498;32.260;2023-07-13T08:53:39;25.30;99.90
45319;DHT22;31057;48.498;32.260;2023-07-13T08:55:44;25.30;99.90
45319;DHT22;31057;48.498;32.260;2023-07-13T08:57:50;25.40;99.90
45319;DHT22;31057;48.498;32.260;2023-07-13T08:59:54;25.40;99.90
45319;DHT22;31057;48.498;32.260;2023-07-13T09:04:34;25.70;99.90
45319;DHT22;31057;48.498;32.260;2023-07-13T09:06:56;25.90;99.90
45319;DHT22;31057;48.498;32.260;2023-07-13T09:09:02;26.20;99.90
45319;DHT22;31057;48.498;32.260;2023-07-13T09:15:49;26.70;99.90
45319;DHT22;31057;48.498;32.260;2023-07-13T09:17:52;27.00;99.90
45319;DHT22;31057;48.498;32.260;2023-07-13T09:20:06;27.10;99.90
45319;DHT22;31057;48.498;32.260;2023-07-13T09:22:16;27.30;99.90
45319;DHT22;31057;48.498;32.260;2023-07-13T09:26:29;27.50;99.90
45319;DHT22;31057;48.498;32.260;2023-07-13T09:28:42;27.70;99.90
45319;DHT22;31057;48.498;32.260;2023-07-13T09:31:02;27.40;99.90
45319;DHT22;31057;48.498;32.260;2023-07-13T09:33:05;27.20;99.90
45319;DHT22;31057;48.498;32.260;2023-07-13T09:35:21;26.80;99.90
45319;DHT22;31057;48.498;32.260;2023-07-13T09:37:30;27.00;99.90
45319;DHT22;31057;48.498;32.260;2023-07-13T09:39:42;27.20;99.90
45319;DHT22;31057;48.498;32.260;2023-07-13T09:42:19;27.40;99.90
45319;DHT22;31057;48.498;32.260;2023-07-13T09:44:34;27.20;98.00
45319;DHT22;31057;48.498;32.260;2023-07-13T09:46:38;27.30;97.80
45319;DHT22;31057;48.498;32.260;2023-07-13T09:48:42;27.40;97.90
45319;DHT22;31057;48.498;32.260;2023-07-13T09:50:44;27.60;98.30
45319;DHT22;31057;48.498;32.260;2023-07-13T09:52:48;27.50;97.90
45319;DHT22;31057;48.498;32.260;2023-07-13T09:54:53;27.40;98.10
45319;DHT22;31057;48.498;32.260;2023-07-13T09:57:03;27.50;97.80
45319;DHT22;31057;48.498;32.260;2023-07-13T09:59:20;27.70;98.00
45319;DHT22;31057;48.498;32.260;2023-07-13T10:01:38;27.40;98.40
45319;DHT22;31057;48.498;32.260;2023-07-13T10:03:52;27.10;98.80
45319;DHT22;31057;48.498;32.260;2023-07-13T10:06:03;27.40;98.90
45319;DHT22;31057;48.498;32.260;2023-07-13T10:08:17;27.30;99.50
45319;DHT22;31057;48.498;32.260;2023-07-13T10:10:23;27.30;99.70
45319;DHT22;31057;48.498;32.260;2023-07-13T10:12:26;27.20;99.90
45319;DHT22;31057;48.498;32.260;2023-07-13T10:14:29;27.40;99.90
45319;DHT22;31057;48.498;32.260;2023-07-13T10:16:33;27.00;99.90
45319;DHT22;31057;48.498;32.260;2023-07-13T10:18:43;26.80;99.90
45319;DHT22;31057;48.498;32.260;2023-07-13T10:20:47;27.00;99.90
45319;DHT22;31057;48.498;32.260;2023-07-13T10:23:02;27.00;99.90
45319;DHT22;31057;48.498;32.260;2023-07-13T10:25:18;27.20;99.90
45319;DHT22;31057;48.498;32.260;2023-07-13T10:27:32;27.30;99.90
45319;DHT22;31057;48.498;32.260;2023-07-13T10:29:52;27.40;99.90
45319;DHT22;31057;48.498;32.260;2023-07-13T10:31:56;27.20;99.90
45319;DHT22;31057;48.498;32.260;2023-07-13T10:33:59;27.30;99.90
45319;DHT22;31057;48.498;32.260;2023-07-13T10:38:43;27.60;99.90
45319;DHT22;31057;48.498;32.260;2023-07-13T10:43:02;27.40;99.90
45319;DHT22;31057;48.498;32.260;2023-07-13T10:45:20;27.40;99.90
45319;DHT22;31057;48.498;32.260;2023-07-13T10:47:22;27.80;99.90
45319;DHT22;31057;48.498;32.260;2023-07-13T10:49:28;27.90;99.90
45319;DHT22;31057;48.498;32.260;2023-07-13T10:51:31;28.30;99.90
45319;DHT22;31057;48.498;32.260;2023-07-13T10:53:36;28.50;99.90
45319;DHT22;31057;48.498;32.260;2023-07-13T10:55:56;28.30;99.90
45319;DHT22;31057;48.498;32.260;2023-07-13T10:58:14;28.00;99.90
45319;DHT22;31057;48.498;32.260;2023-07-13T11:00:20;28.10;99.90
45319;DHT22;31057;48.498;32.260;2023-07-13T11:02:26;28.50;99.90
45319;DHT22;31057;48.498;32.260;2023-07-13T11:04:43;28.40;99.90
45319;DHT22;31057;48.498;32.260;2023-07-13T11:06:48;28.30;99.90
45319;DHT22;31057;48.498;32.260;2023-07-13T11:08:54;28.30;99.90
45319;DHT22;31057;48.498;32.260;2023-07-13T11:10:56;28.20;99.90
45319;DHT22;31057;48.498;32.260;2023-07-13T11:12:58;28.40;99.90
45319;DHT22;31057;48.498;32.260;2023-07-13T11:15:04;28.00;99.90
45319;DHT22;31057;48.498;32.260;2023-07-13T11:19:39;28.60;99.90
45319;DHT22;31057;48.498;32.260;2023-07-13T11:24:17;28.50;99.90
45319;DHT22;31057;48.498;32.260;2023-07-13T11:28:49;29.00;99.90
45319;DHT22;31057;48.498;32.260;2023-07-13T11:33:16;29.30;99.80
45319;DHT22;31057;48.498;32.260;2023-07-13T11:35:23;29.50;99.50
45319;DHT22;31057;48.498;32.260;2023-07-13T11:37:29;29.10;99.60
45319;DHT22;31057;48.498;32.260;2023-07-13T11:39:32;29.10;99.80
45319;DHT22;31057;48.498;32.260;2023-07-13T11:41:37;29.00;99.70
45319;DHT22;31057;48.498;32.260;2023-07-13T11:43:49;28.80;99.90
45319;DHT22;31057;48.498;32.260;2023-07-13T11:45:51;28.50;99.80
45319;DHT22;31057;48.498;32.260;2023-07-13T11:47:54;28.30;99.60
45319;DHT22;31057;48.498;32.260;2023-07-13T11:49:58;28.00;99.50
45319;DHT22;31057;48.498;32.260;2023-07-13T11:52:01;27.90;99.70
45319;DHT22;31057;48.498;32.260;2023-07-13T11:56:24;27.60;99.90
45319;DHT22;31057;48.498;32.260;2023-07-13T11:58:27;27.60;99.90
45319;DHT22;31057;48.498;32.260;2023-07-13T12:00:32;27.50;99.90
45319;DHT22;31057;48.498;32.260;2023-07-13T12:02:46;27.60;99.90
45319;DHT22;31057;48.498;32.260;2023-07-13T12:04:50;27.40;99.90
45319;DHT22;31057;48.498;32.260;2023-07-13T12:07:17;27.30;99.90
45319;DHT22;31057;48.498;32.260;2023-07-13T12:09:19;27.40;99.90
45319;DHT22;31057;48.498;32.260;2023-07-13T12:11:27;27.60;99.90
45319;DHT22;31057;48.498;32.260;2023-07-13T12:13:29;27.70;99.90
45319;DHT22;31057;48.498;32.260;2023-07-13T12:15:37;27.80;99.90
45319;DHT22;31057;48.498;32.260;2023-07-13T12:17:41;27.70;99.90
45319;DHT22;31057;48.498;32.260;2023-07-13T12:19:43;27.90;99.90
45319;DHT22;31057;48.498;32.260;2023-07-13T12:21:46;28.30;99.90
45319;DHT22;31057;48.498;32.260;2023-07-13T12:23:49;28.40;99.90
45319;DHT22;31057;48.498;32.260;2023-07-13T12:25:52;28.70;99.90
45319;DHT22;31057;48.498;32.260;2023-07-13T12:27:54;28.60;99.90
45319;DHT22;31057;48.498;32.260;2023-07-13T12:30:02;28.90;99.80
45319;DHT22;31057;48.498;32.260;2023-07-13T12:32:09;29.00;98.50
45319;DHT22;31057;48.498;32.260;2023-07-13T12:34:14;28.90;98.50
45319;DHT22;31057;48.498;32.260;2023-07-13T12:36:16;29.10;98.10
45319;DHT22;31057;48.498;32.260;2023-07-13T12:38:18;29.00;98.30
45319;DHT22;31057;48.498;32.260;2023-07-13T12:40:29;28.90;98.80
45319;DHT22;31057;48.498;32.260;2023-07-13T12:42:38;28.90;99.10
45319;DHT22;31057;48.498;32.260;2023-07-13T12:44:42;29.20;98.70
45319;DHT22;31057;48.498;32.260;2023-07-13T12:46:53;29.20;99.20
45319;DHT22;31057;48.498;32.260;2023-07-13T12:48:57;29.00;99.40
45319;DHT22;31057;48.498;32.260;2023-07-13T12:51:22;28.90;99.90
45319;DHT22;31057;48.498;32.260;2023-07-13T12:53:29;28.30;99.90
45319;DHT22;31057;48.498;32.260;2023-07-13T12:55:49;28.10;99.90
45319;DHT22;31057;48.498;32.260;2023-07-13T12:57:56;28.10;99.90
45319;DHT22;31057;48.498;32.260;2023-07-13T13:00:03;28.10;99.90
45319;DHT22;31057;48.498;32.260;2023-07-13T13:02:32;27.90;99.90
45319;DHT22;31057;48.498;32.260;2023-07-13T13:04:39;28.00;99.90
45319;DHT22;31057;48.498;32.260;2023-07-13T13:06:42;28.20;99.90
45319;DHT22;31057;48.498;32.260;2023-07-13T13:08:50;28.40;99.90
45319;DHT22;31057;48.498;32.260;2023-07-13T13:10:52;28.70;99.90
45319;DHT22;31057;48.498;32.260;2023-07-13T13:12:54;29.40;99.90
45319;DHT22;31057;48.498;32.260;2023-07-13T13:14:56;29.60;99.80
45319;DHT22;31057;48.498;32.260;2023-07-13T13:16:58;29.40;99.70
45319;DHT22;31057;48.498;32.260;2023-07-13T13:19:25;29.50;99.80
45319;DHT22;31057;48.498;32.260;2023-07-13T13:21:28;29.30;99.90
45319;DHT22;31057;48.498;32.260;2023-07-13T13:23:30;29.10;99.90
45319;DHT22;31057;48.498;32.260;2023-07-13T13:25:32;28.90;99.90
45319;DHT22;31057;48.498;32.260;2023-07-13T13:27:34;28.60;99.90
45319;DHT22;31057;48.498;32.260;2023-07-13T13:29:38;28.50;99.90
45319;DHT22;31057;48.498;32.260;2023-07-13T13:31:41;29.10;99.90
45319;DHT22;31057;48.498;32.260;2023-07-13T13:33:45;29.60;99.90
45319;DHT22;31057;48.498;32.260;2023-07-13T13:35:48;29.60;99.90
45319;DHT22;31057;48.498;32.260;2023-07-13T13:37:50;29.90;99.90
45319;DHT22;31057;48.498;32.260;2023-07-13T13:39:52;30.10;99.90
45319;DHT22;31057;48.498;32.260;2023-07-13T13:42:09;30.30;99.90
45319;DHT22;31057;48.498;32.260;2023-07-13T13:44:14;30.20;99.90
45319;DHT22;31057;48.498;32.260;2023-07-13T13:46:22;30.30;99.30
45319;DHT22;31057;48.498;32.260;2023-07-13T13:48:33;29.50;99.60
45319;DHT22;31057;48.498;32.260;2023-07-13T13:50:35;29.00;99.90
45319;DHT22;31057;48.498;32.260;2023-07-13T13:52:37;28.90;99.90
45319;DHT22;31057;48.498;32.260;2023-07-13T13:54:39;28.80;99.90
45319;DHT22;31057;48.498;32.260;2023-07-13T13:56:44;28.70;99.90
45319;DHT22;31057;48.498;32.260;2023-07-13T13:58:47;28.50;99.90
45319;DHT22;31057;48.498;32.260;2023-07-13T14:00:49;28.60;99.90
45319;DHT22;31057;48.498;32.260;2023-07-13T14:02:53;28.50;99.90
45319;DHT22;31057;48.498;32.260;2023-07-13T14:05:01;28.40;99.90
45319;DHT22;31057;48.498;32.260;2023-07-13T14:07:04;28.40;99.90
45319;DHT22;31057;48.498;32.260;2023-07-13T14:09:14;28.10;99.90
45319;DHT22;31057;48.498;32.260;2023-07-13T14:11:19;28.10;99.90
45319;DHT22;31057;48.498;32.260;2023-07-13T14:13:28;27.90;99.90
45319;DHT22;31057;48.498;32.260;2023-07-13T14:15:30;28.00;99.90
45319;DHT22;31057;48.498;32.260;2023-07-13T14:17:32;28.00;99.90
45319;DHT22;31057;48.498;32.260;2023-07-13T14:19:35;28.20;99.90
45319;DHT22;31057;48.498;32.260;2023-07-13T14:21:37;28.20;99.90
45319;DHT22;31057;48.498;32.260;2023-07-13T14:23:39;28.30;99.90
45319;DHT22;31057;48.498;32.260;2023-07-13T14:25:42;28.20;99.90
45319;DHT22;31057;48.498;32.260;2023-07-13T14:27:45;28.30;99.90
45319;DHT22;31057;48.498;32.260;2023-07-13T14:29:48;28.40;99.90
45319;DHT22;31057;48.498;32.260;2023-07-13T14:31:50;28.40;99.90
45319;DHT22;31057;48.498;32.260;2023-07-13T14:33:53;28.60;99.90
45319;DHT22;31057;48.498;32.260;2023-07-13T14:35:55;28.30;99.90
45319;DHT22;31057;48.498;32.260;2023-07-13T14:37:57;28.40;99.90
45319;DHT22;31057;48.498;32.260;2023-07-13T14:40:00;28.50;99.90
45319;DHT22;31057;48.498;32.260;2023-07-13T14:42:03;28.30;99.90
45319;DHT22;31057;48.498;32.260;2023-07-13T14:44:15;28.30;99.90
45319;DHT22;31057;48.498;32.260;2023-07-13T14:46:31;28.70;99.90
45319;DHT22;31057;48.498;32.260;2023-07-13T14:48:35;29.00;99.90
45319;DHT22;31057;48.498;32.260;2023-07-13T14:50:37;28.50;99.90
45319;DHT22;31057;48.498;32.260;2023-07-13T14:52:41;28.20;99.90
45319;DHT22;31057;48.498;32.260;2023-07-13T14:54:43;28.20;99.90
45319;DHT22;31057;48.498;32.260;2023-07-13T14:56:47;28.10;99.90
45319;DHT22;31057;48.498;32.260;2023-07-13T14:58:49;28.20;99.90
45319;DHT22;31057;48.498;32.260;2023-07-13T15:00:51;28.20;99.90
45319;DHT22;31057;48.498;32.260;2023-07-13T15:02:59;28.10;99.90
45319;DHT22;31057;48.498;32.260;2023-07-13T15:05:12;28.20;99.90
45319;DHT22;31057;48.498;32.260;2023-07-13T15:07:14;28.40;99.90
45319;DHT22;31057;48.498;32.260;2023-07-13T15:09:18;28.50;99.90
45319;DHT22;31057;48.498;32.260;2023-07-13T15:11:20;28.60;99.90
45319;DHT22;31057;48.498;32.260;2023-07-13T15:13:23;28.40;99.90
45319;DHT22;31057;48.498;32.260;2023-07-13T15:15:27;29.00;99.90
45319;DHT22;31057;48.498;32.260;2023-07-13T15:17:41;30.30;99.90
45319;DHT22;31057;48.498;32.260;2023-07-13T15:19:43;32.20;98.20
45319;DHT22;31057;48.498;32.260;2023-07-13T15:21:46;32.40;97.20
45319;DHT22;31057;48.498;32.260;2023-07-13T15:23:50;32.90;96.60
45319;DHT22;31057;48.498;32.260;2023-07-13T15:25:52;32.90;96.30
45319;DHT22;31057;48.498;32.260;2023-07-13T15:27:56;33.20;96.00
45319;DHT22;31057;48.498;32.260;2023-07-13T15:30:00;33.10;95.70
45319;DHT22;31057;48.498;32.260;2023-07-13T15:32:02;33.00;96.20
45319;DHT22;31057;48.498;32.260;2023-07-13T15:34:11;32.80;96.00
45319;DHT22;31057;48.498;32.260;2023-07-13T15:36:15;33.00;95.80
45319;DHT22;31057;48.498;32.260;2023-07-13T15:38:21;32.90;95.50
45319;DHT22;31057;48.498;32.260;2023-07-13T15:40:23;32.60;96.00
45319;DHT22;31057;48.498;32.260;2023-07-13T15:42:26;32.60;96.20
45319;DHT22;31057;48.498;32.260;2023-07-13T15:44:30;32.10;96.40
45319;DHT22;31057;48.498;32.260;2023-07-13T15:46:32;32.50;96.10
45319;DHT22;31057;48.498;32.260;2023-07-13T15:48:34;32.00;96.20
45319;DHT22;31057;48.498;32.260;2023-07-13T15:50:46;32.10;96.20
45319;DHT22;31057;48.498;32.260;2023-07-13T15:52:52;32.00;96.10
45319;DHT22;31057;48.498;32.260;2023-07-13T15:54:55;32.20;96.10
45319;DHT22;31057;48.498;32.260;2023-07-13T15:57:02;32.60;95.30
45319;DHT22;31057;48.498;32.260;2023-07-13T15:59:04;32.10;95.70
45319;DHT22;31057;48.498;32.260;2023-07-13T16:01:10;32.30;95.30
45319;DHT22;31057;48.498;32.260;2023-07-13T16:03:12;31.80;95.90
45319;DHT22;31057;48.498;32.260;2023-07-13T16:05:15;31.70;96.00
45319;DHT22;31057;48.498;32.260;2023-07-13T16:07:17;31.80;96.30
45319;DHT22;31057;48.498;32.260;2023-07-13T16:09:24;31.80;96.10
45319;DHT22;31057;48.498;32.260;2023-07-13T16:11:38;32.00;96.20
45319;DHT22;31057;48.498;32.260;2023-07-13T16:13:40;31.80;96.20
45319;DHT22;31057;48.498;32.260;2023-07-13T16:15:42;31.90;96.30
45319;DHT22;31057;48.498;32.260;2023-07-13T16:17:48;31.90;96.30
45319;DHT22;31057;48.498;32.260;2023-07-13T16:19:51;31.60;96.70
45319;DHT22;31057;48.498;32.260;2023-07-13T16:21:53;31.60;96.80
45319;DHT22;31057;48.498;32.260;2023-07-13T16:23:55;30.90;97.50
45319;DHT22;31057;48.498;32.260;2023-07-13T16:26:28;31.30;97.20
45319;DHT22;31057;48.498;32.260;2023-07-13T16:28:34;31.50;97.50
45319;DHT22;31057;48.498;32.260;2023-07-13T16:30:37;31.40;97.20
45319;DHT22;31057;48.498;32.260;2023-07-13T16:32:39;31.40;97.40
45319;DHT22;31057;48.498;32.260;2023-07-13T16:34:43;30.80;97.70
45319;DHT22;31057;48.498;32.260;2023-07-13T16:36:45;30.00;99.00
45319;DHT22;31057;48.498;32.260;2023-07-13T16:38:47;30.20;98.80
45319;DHT22;31057;48.498;32.260;2023-07-13T16:40:49;30.10;99.10
45319;DHT22;31057;48.498;32.260;2023-07-13T16:42:54;29.50;99.90
45319;DHT22;31057;48.498;32.260;2023-07-13T16:44:56;28.80;99.90
45319;DHT22;31057;48.498;32.260;2023-07-13T16:46:58;28.40;99.90
45319;DHT22;31057;48.498;32.260;2023-07-13T16:49:20;28.90;99.90
45319;DHT22;31057;48.498;32.260;2023-07-13T16:51:23;28.90;99.90
45319;DHT22;31057;48.498;32.260;2023-07-13T16:53:28;28.20;99.90
45319;DHT22;31057;48.498;32.260;2023-07-13T16:55:30;27.70;99.90
45319;DHT22;31057;48.498;32.260;2023-07-13T16:57:32;27.50;99.90
45319;DHT22;31057;48.498;32.260;2023-07-13T16:59:36;27.20;99.90
45319;DHT22;31057;48.498;32.260;2023-07-13T17:01:38;27.00;99.90
45319;DHT22;31057;48.498;32.260;2023-07-13T17:03:41;26.80;99.90
45319;DHT22;31057;48.498;32.260;2023-07-13T17:05:44;27.30;99.90
45319;DHT22;31057;48.498;32.260;2023-07-13T17:07:46;27.70;99.90
45319;DHT22;31057;48.498;32.260;2023-07-13T17:09:51;27.90;99.90
45319;DHT22;31057;48.498;32.260;2023-07-13T17:11:55;27.90;99.90
45319;DHT22;31057;48.498;32.260;2023-07-13T17:13:57;27.80;99.90
45319;DHT22;31057;48.498;32.260;2023-07-13T17:16:01;27.80;99.90
45319;DHT22;31057;48.498;32.260;2023-07-13T17:18:04;27.60;99.90
45319;DHT22;31057;48.498;32.260;2023-07-13T17:22:26;27.30;99.90
45319;DHT22;31057;48.498;32.260;2023-07-13T17:24:31;27.20;99.90
45319;DHT22;31057;48.498;32.260;2023-07-13T17:26:35;26.90;99.90
45319;DHT22;31057;48.498;32.260;2023-07-13T17:28:37;26.70;99.90
45319;DHT22;31057;48.498;32.260;2023-07-13T17:30:41;26.30;99.90
45319;DHT22;31057;48.498;32.260;2023-07-13T17:32:46;25.90;99.90
45319;DHT22;31057;48.498;32.260;2023-07-13T17:34:49;25.60;99.90
45319;DHT22;31057;48.498;32.260;2023-07-13T17:36:51;25.30;99.90
45319;DHT22;31057;48.498;32.260;2023-07-13T17:38:53;25.10;99.90
45319;DHT22;31057;48.498;32.260;2023-07-13T17:41:00;25.00;99.90
45319;DHT22;31057;48.498;32.260;2023-07-13T17:43:03;24.90;99.90
45319;DHT22;31057;48.498;32.260;2023-07-13T17:45:08;24.80;99.90
45319;DHT22;31057;48.498;32.260;2023-07-13T17:47:29;24.60;99.90
45319;DHT22;31057;48.498;32.260;2023-07-13T17:49:31;24.50;99.90
45319;DHT22;31057;48.498;32.260;2023-07-13T17:51:34;24.50;99.90
45319;DHT22;31057;48.498;32.260;2023-07-13T17:53:37;24.40;99.90
45319;DHT22;31057;48.498;32.260;2023-07-13T17:55:44;24.40;99.90
45319;DHT22;31057;48.498;32.260;2023-07-13T17:57:46;24.40;99.90
45319;DHT22;31057;48.498;32.260;2023-07-13T17:59:52;24.40;99.90
45319;DHT22;31057;48.498;32.260;2023-07-13T18:01:54;24.30;99.90
45319;DHT22;31057;48.498;32.260;2023-07-13T18:03:56;24.30;99.90
45319;DHT22;31057;48.498;32.260;2023-07-13T18:06:03;24.20;99.90
45319;DHT22;31057;48.498;32.260;2023-07-13T18:10:21;24.10;99.90
45319;DHT22;31057;48.498;32.260;2023-07-13T18:12:25;24.10;99.90
45319;DHT22;31057;48.498;32.260;2023-07-13T18:14:27;24.00;99.90
45319;DHT22;31057;48.498;32.260;2023-07-13T18:16:33;24.00;99.90
45319;DHT22;31057;48.498;32.260;2023-07-13T18:18:36;24.00;99.90
45319;DHT22;31057;48.498;32.260;2023-07-13T18:20:39;23.90;99.90
45319;DHT22;31057;48.498;32.260;2023-07-13T18:22:45;23.80;99.90
45319;DHT22;31057;48.498;32.260;2023-07-13T18:24:47;23.80;99.90
45319;DHT22;31057;48.498;32.260;2023-07-13T18:26:49;23.80;99.90
45319;DHT22;31057;48.498;32.260;2023-07-13T18:28:51;23.70;99.90
45319;DHT22;31057;48.498;32.260;2023-07-13T18:30:56;23.70;99.90
45319;DHT22;31057;48.498;32.260;2023-07-13T18:32:58;23.60;99.90
45319;DHT22;31057;48.498;32.260;2023-07-13T18:35:01;23.60;99.90
45319;DHT22;31057;48.498;32.260;2023-07-13T18:37:17;23.60;99.90
45319;DHT22;31057;48.498;32.260;2023-07-13T18:39:21;23.60;99.90
45319;DHT22;31057;48.498;32.260;2023-07-13T18:41:22;23.50;99.90
45319;DHT22;31057;48.498;32.260;2023-07-13T18:43:25;23.50;99.90
45319;DHT22;31057;48.498;32.260;2023-07-13T18:45:27;23.40;99.90
45319;DHT22;31057;48.498;32.260;2023-07-13T18:47:32;23.40;99.90
45319;DHT22;31057;48.498;32.260;2023-07-13T18:49:40;23.30;99.90
45319;DHT22;31057;48.498;32.260;2023-07-13T18:51:45;23.30;99.90
45319;DHT22;31057;48.498;32.260;2023-07-13T18:53:49;23.20;99.90
45319;DHT22;31057;48.498;32.260;2023-07-13T18:55:51;23.20;99.90
45319;DHT22;31057;48.498;32.260;2023-07-13T18:57:53;23.10;99.90
45319;DHT22;31057;48.498;32.260;2023-07-13T19:00:15;23.20;99.90
45319;DHT22;31057;48.498;32.260;2023-07-13T19:02:18;23.10;99.90
45319;DHT22;31057;48.498;32.260;2023-07-13T19:04:30;23.00;99.90
45319;DHT22;31057;48.498;32.260;2023-07-13T19:06:32;23.10;99.90
45319;DHT22;31057;48.498;32.260;2023-07-13T19:08:39;23.00;99.90
45319;DHT22;31057;48.498;32.260;2023-07-13T19:10:43;23.00;99.90
45319;DHT22;31057;48.498;32.260;2023-07-13T19:12:47;22.90;99.90
45319;DHT22;31057;48.498;32.260;2023-07-13T19:14:55;22.90;99.90
45319;DHT22;31057;48.498;32.260;2023-07-13T19:16:57;22.90;99.90
45319;DHT22;31057;48.498;32.260;2023-07-13T19:18:59;22.90;99.90
45319;DHT22;31057;48.498;32.260;2023-07-13T19:21:09;22.90;99.90
45319;DHT22;31057;48.498;32.260;2023-07-13T19:25:30;22.90;99.90
45319;DHT22;31057;48.498;32.260;2023-07-13T19:27:34;22.90;99.90
45319;DHT22;31057;48.498;32.260;2023-07-13T19:29:36;22.90;99.90
45319;DHT22;31057;48.498;32.260;2023-07-13T19:31:39;22.90;99.90
45319;DHT22;31057;48.498;32.260;2023-07-13T19:33:42;22.90;99.90
45319;DHT22;31057;48.498;32.260;2023-07-13T19:35:44;22.90;99.90
45319;DHT22;31057;48.498;32.260;2023-07-13T19:37:47;22.80;99.90
45319;DHT22;31057;48.498;32.260;2023-07-13T19:39:49;22.80;99.90
45319;DHT22;31057;48.498;32.260;2023-07-13T19:42:03;22.70;99.90
45319;DHT22;31057;48.498;32.260;2023-07-13T19:44:08;22.70;99.90
45319;DHT22;31057;48.498;32.260;2023-07-13T19:46:35;22.60;99.90
45319;DHT22;31057;48.498;32.260;2023-07-13T19:48:38;22.60;99.90
45319;DHT22;31057;48.498;32.260;2023-07-13T19:50:41;22.60;99.90
45319;DHT22;31057;48.498;32.260;2023-07-13T19:52:51;22.50;99.90
45319;DHT22;31057;48.498;32.260;2023-07-13T19:54:56;22.40;99.90
45319;DHT22;31057;48.498;32.260;2023-07-13T19:57:00;22.40;99.90
45319;DHT22;31057;48.498;32.260;2023-07-13T19:59:35;22.40;99.90
45319;DHT22;31057;48.498;32.260;2023-07-13T20:01:30;22.30;99.90
45319;DHT22;31057;48.498;32.260;2023-07-13T20:03:33;22.30;99.90
45319;DHT22;31057;48.498;32.260;2023-07-13T20:05:35;22.30;99.90
45319;DHT22;31057;48.498;32.260;2023-07-13T20:07:39;22.30;99.90
45319;DHT22;31057;48.498;32.260;2023-07-13T20:09:41;22.30;99.90
45319;DHT22;31057;48.498;32.260;2023-07-13T20:11:49;22.30;99.90
45319;DHT22;31057;48.498;32.260;2023-07-13T20:13:53;22.20;99.90
45319;DHT22;31057;48.498;32.260;2023-07-13T20:15:56;22.20;99.90
45319;DHT22;31057;48.498;32.260;2023-07-13T20:17:59;22.10;99.90
45319;DHT22;31057;48.498;32.260;2023-07-13T20:22:17;22.10;99.90
45319;DHT22;31057;48.498;32.260;2023-07-13T20:24:19;22.10;99.90
45319;DHT22;31057;48.498;32.260;2023-07-13T20:26:21;22.10;99.90
45319;DHT22;31057;48.498;32.260;2023-07-13T20:28:25;22.10;99.90
45319;DHT22;31057;48.498;32.260;2023-07-13T20:30:29;22.20;99.90
45319;DHT22;31057;48.498;32.260;2023-07-13T20:32:38;22.20;99.90
45319;DHT22;31057;48.498;32.260;2023-07-13T20:34:40;22.20;99.90
45319;DHT22;31057;48.498;32.260;2023-07-13T20:36:42;22.10;99.90
45319;DHT22;31057;48.498;32.260;2023-07-13T20:38:44;22.10;99.90
45319;DHT22;31057;48.498;32.260;2023-07-13T20:40:48;22.10;99.90
45319;DHT22;31057;48.498;32.260;2023-07-13T20:42:54;22.00;99.90